Time;durP1;ratioP1;P1;durP2;ratioP2;P2;SDS_P1;SDS_P2;PMS_P1;PMS_P2;Temp;Humidity;BMP_temperature;BMP_pressure;BME280_temperature;BME280_humidity;BME280_pressure;Samples;Min_cycle;Max_cycle;Signal;HPM_P1;HPM_P2
2022/05/21 00:00:38;;;;;;;10.30;3.85;;;;;;;12.39;100.00;101882.63;10417291;28;20042;-72
2022/05/21 00:05:39;;;;;;;12.00;4.18;;;;;;;12.54;100.00;101876.19;10397949;28;20376;-72
2022/05/21 00:10:39;;;;;;;24.83;6.00;;;;;;;12.58;100.00;101879.38;10416011;28;20392;-72
2022/05/21 00:15:40;;;;;;;17.75;4.50;;;;;;;12.73;100.00;101879.34;10416601;28;20037;-72
2022/05/21 00:20:49;;;;;;;23.52;6.70;;;;;;;12.81;100.00;101879.28;10398330;28;20116;-72
2022/05/21 00:25:56;;;;;;;20.90;5.63;;;;;;;12.94;100.00;101884.88;10415709;28;20029;-72
2022/05/21 00:30:57;;;;;;;20.15;5.75;;;;;;;12.94;100.00;101890.31;10415707;28;20045;-72
2022/05/21 00:35:57;;;;;;;18.00;5.43;;;;;;;13.02;100.00;101892.09;10414434;28;20034;-72
2022/05/21 00:40:58;;;;;;;17.63;6.13;;;;;;;13.09;100.00;101884.03;10414755;28;20034;-73
2022/05/21 00:45:59;;;;;;;20.35;5.15;;;;;;;13.09;100.00;101890.31;10414299;28;20033;-72
2022/05/21 00:51:00;;;;;;;11.40;5.15;;;;;;;13.11;100.00;101881.94;10415325;28;20128;-73
2022/05/21 00:56:00;;;;;;;12.80;6.45;;;;;;;13.09;100.00;101887.59;10414753;28;20025;-72
2022/05/21 01:01:01;;;;;;;12.82;6.32;;;;;;;12.98;100.00;101890.78;10406351;28;20041;-73
2022/05/21 01:06:03;;;;;;;13.35;4.75;;;;;;;12.90;100.00;101885.47;10404389;28;20048;-72
2022/05/21 01:11:06;;;;;;;25.58;7.07;;;;;;;12.88;100.00;101884.78;10406268;28;20045;-73
2022/05/21 01:16:07;;;;;;;16.80;5.03;;;;;;;13.01;100.00;101896.66;10404276;28;20498;-73
2022/05/21 01:21:07;;;;;;;21.48;7.00;;;;;;;12.87;100.00;101902.16;10404460;28;20041;-72
2022/05/21 01:26:19;;;;;;;21.73;6.63;;;;;;;12.92;100.00;101907.84;10421315;28;20029;-72
2022/05/21 01:31:19;;;;;;;17.50;5.93;;;;;;;12.80;100.00;101896.63;10403336;28;20453;-72
2022/05/21 01:36:20;;;;;;;27.65;7.18;;;;;;;12.70;100.00;101902.34;10403981;28;20100;-72
2022/05/21 01:41:20;;;;;;;11.60;6.32;;;;;;;12.66;100.00;101911.88;10422619;28;20037;-71
2022/05/21 01:46:20;;;;;;;25.73;7.00;;;;;;;12.61;100.00;101906.16;10420492;28;20033;-72
2022/05/21 01:51:21;;;;;;;19.73;6.68;;;;;;;12.50;100.00;101901.19;10420893;28;20123;-72
2022/05/21 01:56:21;;;;;;;24.48;6.60;;;;;;;12.41;100.00;101913.16;10422100;28;20033;-72
2022/05/21 02:01:22;;;;;;;19.90;6.45;;;;;;;12.31;100.00;101908.81;10420464;28;20496;-71
2022/05/21 02:06:22;;;;;;;19.33;5.05;;;;;;;12.28;100.00;101908.34;10419663;28;20037;-72
2022/05/21 02:11:22;;;;;;;21.08;6.78;;;;;;;12.29;100.00;101913.63;10401427;28;20064;-72
2022/05/21 02:16:23;;;;;;;12.23;4.40;;;;;;;12.22;100.00;101911.81;10420522;28;20432;-72
2022/05/21 02:21:23;;;;;;;17.50;5.95;;;;;;;12.23;100.00;101919.78;10418504;28;20099;-72
2022/05/21 02:26:23;;;;;;;12.30;4.80;;;;;;;12.18;100.00;101908.59;10418251;28;20469;-72
2022/05/21 02:31:24;;;;;;;16.27;4.43;;;;;;;12.05;100.00;101911.94;10418380;28;20049;-72
2022/05/21 02:41:44;;;;;;;25.58;6.82;;;;;;;11.99;100.00;101920.81;10416890;28;20061;-72
2022/05/21 02:46:45;;;;;;;21.33;5.70;;;;;;;11.92;100.00;101919.88;10417129;28;20026;-73
2022/05/21 02:51:45;;;;;;;23.10;5.20;;;;;;;11.98;100.00;101931.88;10422092;28;20029;-72
2022/05/21 02:56:50;;;;;;;17.83;4.50;;;;;;;11.94;100.00;101922.41;10419122;28;20097;-72
2022/05/21 03:01:50;;;;;;;15.68;4.43;;;;;;;11.84;100.00;101911.78;10417023;28;20033;-72
2022/05/21 03:06:50;;;;;;;9.02;3.40;;;;;;;11.81;100.00;101917.56;10419303;28;20036;-73
2022/05/21 03:11:51;;;;;;;7.78;3.17;;;;;;;11.75;100.00;101919.13;10418541;28;20457;-73
2022/05/21 03:16:56;;;;;;;6.90;3.47;;;;;;;11.79;100.00;101923.16;10416486;28;20040;-72
2022/05/21 03:21:57;;;;;;;8.90;3.92;;;;;;;11.72;100.00;101926.78;10418306;28;20142;-72
2022/05/21 03:26:57;;;;;;;14.15;4.18;;;;;;;11.70;100.00;101932.38;10401262;28;20436;-72
2022/05/21 03:31:58;;;;;;;11.25;3.53;;;;;;;11.62;100.00;101925.13;10416450;28;20041;-72
2022/05/21 03:36:59;;;;;;;16.67;4.80;;;;;;;11.68;100.00;101942.56;10416530;28;20384;-72
2022/05/21 03:41:59;;;;;;;16.95;4.45;;;;;;;11.60;100.00;101937.19;10399412;28;20040;-72
2022/05/21 03:47:00;;;;;;;17.45;5.53;;;;;;;11.57;100.00;101938.38;10418972;28;20044;-72
2022/05/21 03:52:00;;;;;;;10.18;3.67;;;;;;;11.64;100.00;101938.50;10416110;28;20129;-73
2022/05/21 03:57:00;;;;;;;14.05;4.18;;;;;;;11.62;100.00;101935.16;10416067;28;20362;-72
2022/05/21 04:02:01;;;;;;;18.42;5.20;;;;;;;11.67;100.00;101938.16;10414981;28;20033;-73
2022/05/21 04:07:01;;;;;;;11.40;4.18;;;;;;;11.72;100.00;101946.59;10416229;28;20033;-72
2022/05/21 04:12:03;;;;;;;16.67;3.75;;;;;;;11.77;100.00;101956.91;10414943;28;20500;-72
2022/05/21 04:17:04;;;;;;;25.30;7.38;;;;;;;11.76;100.00;101956.06;10416635;28;20040;-72
2022/05/21 04:22:04;;;;;;;13.07;4.22;;;;;;;11.78;100.00;101958.63;10397718;28;20032;-73
2022/05/21 04:27:07;;;;;;;5.93;4.38;;;;;;;11.77;100.00;101968.63;10398230;28;20127;-72
2022/05/21 04:32:08;;;;;;;26.40;6.18;;;;;;;11.84;100.00;101971.47;10415795;28;20461;-72
2022/05/21 04:37:08;;;;;;;13.02;5.20;;;;;;;11.83;100.00;101967.88;10407042;28;20099;-73
2022/05/21 04:42:09;;;;;;;18.70;4.90;;;;;;;11.90;100.00;101975.34;10423802;28;20029;-72
2022/05/21 04:47:09;;;;;;;24.75;6.25;;;;;;;12.02;100.00;101971.19;10422884;28;20465;-72
2022/05/21 04:52:10;;;;;;;18.63;5.18;;;;;;;12.54;100.00;101981.31;10423932;28;20033;-72
2022/05/21 04:57:10;;;;;;;17.60;6.00;;;;;;;13.37;100.00;101982.09;10422742;28;20048;-73
2022/05/21 05:02:10;;;;;;;18.50;5.35;;;;;;;14.00;100.00;101999.59;10422981;28;20430;-72
2022/05/21 05:07:12;;;;;;;25.10;6.38;;;;;;;14.42;100.00;102006.09;10422074;28;20030;-73
2022/05/21 05:12:13;;;;;;;19.15;4.30;;;;;;;14.85;100.00;101998.72;10422054;28;20042;-73
2022/05/21 05:17:13;;;;;;;22.30;4.07;;;;;;;15.30;100.00;102017.47;10421717;28;20041;-73
2022/05/21 05:22:14;;;;;;;19.27;4.32;;;;;;;15.53;100.00;102009.81;10403901;28;20079;-73
2022/05/21 05:27:14;;;;;;;22.23;3.83;;;;;;;16.08;100.00;102017.16;10421143;28;20049;-73
2022/05/21 05:32:16;;;;;;;12.45;5.13;;;;;;;16.34;100.00;102021.84;10405419;28;20052;-73
2022/05/21 05:37:16;;;;;;;13.85;4.18;;;;;;;16.72;100.00;102013.88;10422224;28;20073;-73
2022/05/21 05:42:17;;;;;;;13.15;4.78;;;;;;;16.89;100.00;102023.34;10420761;28;20037;-73
2022/05/21 05:47:17;;;;;;;7.10;2.72;;;;;;;17.31;100.00;102023.91;10420201;28;20042;-74
2022/05/21 05:52:18;;;;;;;18.75;4.18;;;;;;;17.23;100.00;102018.69;10422156;28;20104;-74
2022/05/21 05:57:18;;;;;;;7.82;3.42;;;;;;;17.35;100.00;102016.09;10420407;28;20041;-74
2022/05/21 06:07:46;;;;;;;12.43;4.30;;;;;;;18.20;100.00;102027.75;10420668;28;20037;-73
2022/05/21 06:12:48;;;;;;;12.50;3.90;;;;;;;18.56;100.00;102042.66;10402269;28;20497;-73
2022/05/21 06:17:50;;;;;;;8.63;4.30;;;;;;;18.75;100.00;102038.13;10420158;28;20037;-74
2022/05/21 06:22:50;;;;;;;18.67;4.20;;;;;;;19.08;100.00;102040.56;10420851;28;20040;-74
2022/05/21 06:27:51;;;;;;;8.38;2.95;;;;;;;19.56;100.00;102039.84;10403436;28;20050;-74
2022/05/21 06:32:52;;;;;;;10.00;4.47;;;;;;;19.38;100.00;102046.16;10423557;28;20051;-75
2022/05/21 06:37:52;;;;;;;9.70;4.25;;;;;;;18.48;100.00;102053.94;10424078;28;20068;-74
2022/05/21 06:42:53;;;;;;;16.73;3.58;;;;;;;19.34;100.00;102055.09;10421851;28;20087;-73
2022/05/21 06:47:53;;;;;;;13.10;3.28;;;;;;;19.85;100.00;102071.22;10421612;28;20107;-74
2022/05/21 06:52:54;;;;;;;22.75;5.10;;;;;;;20.09;100.00;102090.56;10423500;28;20495;-74
2022/05/21 06:57:54;;;;;;;13.90;4.28;;;;;;;20.01;100.00;102090.91;10405741;28;20029;-73
2022/05/21 07:02:55;;;;;;;12.05;5.65;;;;;;;20.38;100.00;102083.38;10423767;28;20088;-74
2022/05/21 07:07:55;;;;;;;14.05;5.80;;;;;;;20.46;100.00;102093.25;10423138;28;20033;-74
2022/05/21 07:12:56;;;;;;;7.57;3.13;;;;;;;20.72;100.00;102087.34;10423131;28;20399;-74
2022/05/21 07:17:57;;;;;;;12.40;3.90;;;;;;;21.16;100.00;102098.88;10422812;28;20468;-74
2022/05/21 07:23:00;;;;;;;9.02;3.58;;;;;;;21.43;100.00;102104.78;10423993;28;20032;-75
2022/05/21 07:28:00;;;;;;;6.05;3.15;;;;;;;21.47;100.00;102119.72;10405043;28;20464;-74
2022/05/21 07:33:00;;;;;;;8.02;3.85;;;;;;;21.33;100.00;102124.63;10420657;28;20092;-74
2022/05/21 07:38:01;;;;;;;3.40;3.08;;;;;;;21.55;100.00;102132.34;10419908;28;20037;-75
2022/05/21 07:43:16;;;;;;;18.85;3.90;;;;;;;21.88;100.00;102126.16;10418869;28;20044;-74
2022/05/21 07:48:18;;;;;;;9.50;3.58;;;;;;;21.62;100.00;102138.53;10400897;28;20448;-74
2022/05/21 07:53:20;;;;;;;17.25;3.83;;;;;;;22.25;100.00;102143.22;10418280;28;20116;-74
2022/05/21 07:58:23;;;;;;;8.48;4.07;;;;;;;22.12;100.00;102143.50;10383655;28;20029;-73
2022/05/21 08:03:23;;;;;;;16.77;5.07;;;;;;;21.65;100.00;102148.25;10400075;28;20029;-74
2022/05/21 08:08:24;;;;;;;5.97;3.88;;;;;;;22.04;100.00;102147.44;10397779;28;20061;-75
2022/05/21 08:13:24;;;;;;;8.30;2.92;;;;;;;21.54;100.00;102161.81;10415966;28;20381;-75
2022/05/21 08:18:26;;;;;;;21.73;4.30;;;;;;;20.81;100.00;102164.94;10416754;28;20033;-74
2022/05/21 08:28:46;;;;;;;6.65;2.92;;;;;;;22.01;100.00;102161.72;10416097;28;20458;-75
2022/05/21 08:33:46;;;;;;;7.50;3.90;;;;;;;22.39;100.00;102159.50;10397286;28;20065;-75
2022/05/21 08:38:47;;;;;;;6.35;3.55;;;;;;;21.18;100.00;102168.34;10397387;28;20095;-75
2022/05/21 08:44:01;;;;;;;7.72;4.18;;;;;;;21.01;100.00;102153.59;10398313;28;20504;-75
2022/05/21 08:49:21;;;;;;;10.90;3.65;;;;;;;21.45;100.00;102154.16;10415320;28;20038;-75
2022/05/21 08:54:23;;;;;;;11.43;3.40;;;;;;;22.69;100.00;102162.00;10398418;28;20087;-75
2022/05/21 08:59:29;;;;;;;10.73;3.90;;;;;;;22.37;100.00;102169.97;10397072;28;20453;-75
2022/05/21 09:04:30;;;;;;;6.75;4.53;;;;;;;22.41;100.00;102146.31;10397440;28;20040;-75
2022/05/21 09:09:53;;;;;;;4.38;3.63;;;;;;;22.28;100.00;102153.78;10397132;28;20029;-75
2022/05/21 09:14:55;;;;;;;8.77;3.90;;;;;;;22.01;100.00;102161.72;10408454;28;20065;-75
2022/05/21 09:19:57;;;;;;;7.05;3.17;;;;;;;21.72;100.00;102166.34;10397480;28;20033;-72
2022/05/21 09:24:58;;;;;;;6.82;3.85;;;;;;;21.11;95.93;102151.91;10403333;28;20485;-70
2022/05/21 09:30:21;;;;;;;12.65;3.53;;;;;;;21.48;100.00;102160.03;10419949;28;20053;-70
2022/05/21 09:35:24;;;;;;;8.05;3.72;;;;;;;22.21;93.94;102160.53;10421898;28;20030;-70
2022/05/21 09:40:35;;;;;;;7.60;3.05;;;;;;;22.36;100.00;102160.00;10403734;28;20112;-70
2022/05/21 09:45:37;;;;;;;5.15;3.67;;;;;;;22.61;100.00;102162.41;10404026;28;20030;-70
2022/05/21 09:50:59;;;;;;;5.43;3.00;;;;;;;22.30;100.00;102159.03;10418106;28;20075;-70
2022/05/21 09:56:08;;;;;;;5.63;2.28;;;;;;;21.69;99.34;102158.56;10418517;28;20034;-69
2022/05/21 10:01:13;;;;;;;5.78;3.88;;;;;;;21.26;92.88;102178.19;10421593;28;20450;-71
2022/05/21 10:06:32;;;;;;;11.87;3.03;;;;;;;20.79;96.14;102180.84;10419655;28;20040;-70
2022/05/21 10:11:50;;;;;;;9.00;3.35;;;;;;;21.11;97.86;102178.63;10402370;28;20057;-69
2022/05/21 10:16:56;;;;;;;13.30;3.55;;;;;;;22.22;99.95;102178.75;10400807;28;20033;-68
2022/05/21 10:22:41;;;;;;;22.38;4.50;;;;;;;22.08;93.49;102186.44;10419660;28;20029;-69
2022/05/21 10:28:03;;;;;;;12.85;4.03;;;;;;;21.86;94.18;102189.00;10384460;28;20057;-69
2022/05/21 10:33:35;;;;;;;8.20;4.18;;;;;;;22.23;88.32;102195.06;10417952;28;20025;-71
2022/05/21 10:39:00;;;;;;;9.60;3.10;;;;;;;22.39;94.27;102190.69;10419560;28;20094;-69
2022/05/21 10:44:31;;;;;;;13.50;4.13;;;;;;;21.76;83.92;102194.25;10400927;28;20109;-68
2022/05/21 10:49:57;;;;;;;4.40;3.03;;;;;;;21.28;78.39;102187.91;10418012;28;20025;-72
2022/05/21 10:55:14;;;;;;;4.32;3.55;;;;;;;21.68;85.04;102191.88;10417921;28;20056;-72
2022/05/21 11:00:48;;;;;;;7.57;3.58;;;;;;;22.06;84.46;102194.13;10417541;28;20430;-69
2022/05/21 11:06:22;;;;;;;5.15;3.03;;;;;;;22.90;82.50;102197.19;10415751;28;20124;-69
2022/05/21 11:11:50;;;;;;;9.07;3.45;;;;;;;23.50;71.44;102203.19;10416853;28;20105;-73
2022/05/21 11:17:00;;;;;;;7.40;3.45;;;;;;;23.36;84.23;102198.00;10416638;28;20032;-71
2022/05/21 11:22:03;;;;;;;6.07;3.60;;;;;;;23.93;86.28;102196.09;10417586;28;20039;-72
2022/05/21 11:27:10;;;;;;;8.15;3.88;;;;;;;23.83;81.38;102194.84;10399108;28;20532;-72
2022/05/21 11:37:40;;;;;;;9.10;3.92;;;;;;;22.77;77.46;102199.44;10349556;28;20045;-71
2022/05/21 11:42:48;;;;;;;;;;;;;;;21.83;78.67;102187.56;10343942;28;20087;-71
2022/05/21 11:48:11;;;;;;;6.43;3.47;;;;;;;22.01;74.28;102196.75;10374854;28;19914;-70
2022/05/21 11:53:38;;;;;;;7.93;4.47;;;;;;;21.61;82.76;102196.69;10344971;28;20025;-70
2022/05/21 11:58:57;;;;;;;5.20;3.10;;;;;;;23.79;73.30;102193.69;10374846;28;20172;-71
2022/05/21 12:03:58;;;;;;;5.05;3.30;;;;;;;23.41;68.65;102194.47;10374635;28;20034;-72
2022/05/21 12:09:25;;;;;;;10.10;3.88;;;;;;;23.11;74.30;102201.19;10375105;28;20107;-72
2022/05/21 12:14:25;;;;;;;;;;;;;;;22.06;77.58;102192.19;10375755;28;20038;-72
2022/05/21 12:19:44;;;;;;;23.23;4.40;;;;;;;22.45;83.31;102195.22;10356623;28;20003;-71
2022/05/21 12:24:45;;;;;;;9.18;3.95;;;;;;;23.19;72.26;102197.16;10374112;28;20080;-72
2022/05/21 12:29:46;;;;;;;8.77;3.83;;;;;;;22.88;78.16;102179.19;10395855;28;20051;-72
2022/05/21 12:34:58;;;;;;;9.98;3.22;;;;;;;22.91;73.71;102173.16;10415208;28;20507;-72
2022/05/21 12:40:01;;;;;;;9.40;3.83;;;;;;;24.11;70.15;102176.41;10415259;28;20036;-73
2022/05/21 12:45:02;;;;;;;11.82;3.00;;;;;;;24.25;73.15;102174.94;10414722;28;20468;-72
2022/05/21 12:50:14;;;;;;;9.50;3.20;;;;;;;23.96;66.63;102182.59;10413901;28;20071;-72
2022/05/21 12:55:19;;;;;;;2.97;2.53;;;;;;;22.89;72.99;102191.91;10400869;28;20112;-72
2022/05/21 13:00:20;;;;;;;8.73;3.13;;;;;;;22.34;73.64;102198.88;10423578;28;20097;-72
2022/05/21 13:05:30;;;;;;;5.22;2.85;;;;;;;21.87;73.93;102193.44;10387953;28;20128;-72
2022/05/21 13:10:34;;;;;;;8.07;2.85;;;;;;;21.76;75.98;102194.25;10405652;28;20126;-71
2022/05/21 13:15:46;;;;;;;9.18;3.63;;;;;;;21.74;76.36;102201.97;10420197;28;20393;-72
2022/05/21 13:21:14;;;;;;;8.80;3.08;;;;;;;21.80;80.38;102206.50;10404022;28;20459;-72
2022/05/21 13:26:26;;;;;;;8.13;4.55;;;;;;;21.85;73.28;102203.03;10420809;28;20140;-74
2022/05/21 13:31:26;;;;;;;11.48;2.97;;;;;;;21.62;75.03;102190.94;10404009;28;20049;-73
2022/05/21 13:36:31;;;;;;;8.75;3.65;;;;;;;22.19;74.75;102184.75;10421001;28;20037;-75
2022/05/21 13:41:39;;;;;;;6.57;2.50;;;;;;;22.31;68.27;102190.25;10420674;28;20389;-74
2022/05/21 13:46:39;;;;;;;24.23;4.28;;;;;;;23.08;72.25;102192.56;10403065;28;20091;-74
2022/05/21 13:51:40;;;;;;;7.90;3.13;;;;;;;22.88;72.85;102187.50;10404214;28;20132;-75
2022/05/21 13:56:42;;;;;;;18.65;3.00;;;;;;;22.26;65.97;102171.66;10401902;28;20041;-74
2022/05/21 14:02:10;;;;;;;7.55;3.20;;;;;;;22.14;64.55;102162.53;10402498;28;20088;-74
2022/05/21 14:07:26;;;;;;;7.10;3.05;;;;;;;22.04;69.53;102164.00;10408586;28;20420;-74
2022/05/21 14:12:44;;;;;;;5.20;3.87;;;;;;;21.67;71.43;102162.66;10419817;28;20036;-75
2022/05/21 14:17:52;;;;;;;4.68;3.00;;;;;;;21.59;73.84;102145.38;10402864;28;20100;-74
2022/05/21 14:22:53;;;;;;;10.95;2.53;;;;;;;21.58;69.92;102145.63;10418825;28;20037;-75
2022/05/21 14:28:15;;;;;;;5.75;2.97;;;;;;;21.51;66.46;102147.69;10417769;28;20060;-74
2022/05/21 14:33:16;;;;;;;4.45;2.25;;;;;;;21.51;64.03;102148.50;10420520;28;20040;-74
2022/05/21 14:38:20;;;;;;;10.23;3.05;;;;;;;21.59;63.96;102137.09;10418999;28;20457;-75
2022/05/21 14:43:36;;;;;;;5.88;2.60;;;;;;;21.35;64.34;102140.97;10400891;28;20124;-75
2022/05/21 14:48:36;;;;;;;13.90;3.08;;;;;;;21.09;69.17;102129.31;10418495;28;20025;-74
2022/05/21 14:53:43;;;;;;;6.28;2.78;;;;;;;21.46;71.96;102134.59;10418005;28;20041;-74
2022/05/21 14:58:44;;;;;;;4.90;2.35;;;;;;;21.69;72.91;102132.91;10401586;28;20045;-75
2022/05/21 15:03:44;;;;;;;12.35;3.85;;;;;;;21.82;72.34;102133.50;10417300;28;20120;-75
2022/05/21 15:08:45;;;;;;;6.82;3.38;;;;;;;21.52;71.67;102136.41;10417639;28;20079;-74
2022/05/21 15:13:46;;;;;;;3.40;1.92;;;;;;;21.62;68.25;102134.97;10400565;28;20088;-74
2022/05/21 15:18:47;;;;;;;7.18;3.20;;;;;;;21.09;67.14;102131.19;10415863;28;20040;-74
2022/05/21 15:23:47;;;;;;;3.60;2.85;;;;;;;20.55;74.28;102135.88;10415237;28;20048;-74
2022/05/21 15:28:47;;;;;;;6.13;3.78;;;;;;;20.51;69.92;102134.63;10417081;28;20152;-73
2022/05/21 15:33:48;;;;;;;11.18;2.83;;;;;;;20.31;69.41;102130.25;10418525;28;20044;-73
2022/05/21 15:38:48;;;;;;;9.23;3.28;;;;;;;20.22;70.59;102131.63;10399219;28;20029;-74
2022/05/21 15:43:49;;;;;;;14.48;3.20;;;;;;;20.28;71.15;102124.38;10415759;28;20057;-75
2022/05/21 15:48:50;;;;;;;5.95;4.93;;;;;;;20.26;70.54;102123.75;10416097;28;20029;-75
2022/05/21 15:53:51;;;;;;;10.15;4.32;;;;;;;20.06;71.46;102122.09;10420828;28;20112;-75
2022/05/21 15:58:51;;;;;;;13.45;3.92;;;;;;;19.79;70.79;102113.38;10417420;28;20025;-74
2022/05/21 16:03:54;;;;;;;4.25;2.65;;;;;;;19.57;67.94;102118.44;10400841;28;20487;-74
2022/05/21 16:08:54;;;;;;;14.02;6.93;;;;;;;19.32;70.65;102103.91;10399331;28;20033;-74
2022/05/21 16:13:56;;;;;;;7.10;3.83;;;;;;;19.39;73.15;102107.44;10383228;28;20033;-75
2022/05/21 16:18:57;;;;;;;8.73;3.28;;;;;;;19.29;72.31;102103.28;10397616;28;20060;-74
2022/05/21 16:23:58;;;;;;;7.90;4.60;;;;;;;19.20;70.52;102099.16;10414809;28;20057;-74
2022/05/21 16:28:59;;;;;;;3.92;3.50;;;;;;;19.13;73.04;102095.63;10398594;28;20136;-74
2022/05/21 16:34:00;;;;;;;8.57;3.58;;;;;;;19.00;72.51;102087.53;10422770;28;20495;-75
2022/05/21 16:39:00;;;;;;;6.10;4.10;;;;;;;18.73;70.52;102084.13;10407079;28;20033;-75
2022/05/21 16:44:01;;;;;;;5.88;3.25;;;;;;;18.30;71.53;102082.94;10422194;28;20040;-75
2022/05/21 16:49:01;;;;;;;7.15;3.97;;;;;;;17.97;71.54;102088.59;10423782;28;20033;-75
2022/05/21 16:54:01;;;;;;;6.07;4.28;;;;;;;17.96;72.28;102075.09;10423163;28;20038;-75
2022/05/21 16:59:02;;;;;;;8.00;3.25;;;;;;;17.99;74.12;102058.22;10405234;28;20068;-75
2022/05/21 17:04:02;;;;;;;6.75;3.70;;;;;;;17.94;75.62;102052.56;10404636;28;20401;-75
2022/05/21 17:09:03;;;;;;;15.10;3.80;;;;;;;17.71;74.50;102059.38;10421491;28;20084;-75
2022/05/21 17:14:04;;;;;;;11.93;2.33;;;;;;;17.47;75.78;102051.88;10422193;28;20044;-75
2022/05/21 17:19:04;;;;;;;5.20;2.10;;;;;;;17.17;74.73;102055.13;10421016;28;20037;-75
2022/05/21 17:24:05;;;;;;;14.43;4.93;;;;;;;17.04;74.50;102050.50;10404705;28;20033;-75
2022/05/21 17:34:25;;;;;;;6.93;2.67;;;;;;;16.84;76.22;102055.97;10424099;28;20501;-75
2022/05/21 17:39:26;;;;;;;15.35;3.08;;;;;;;16.87;75.81;102057.44;10405699;28;20068;-74
2022/05/21 17:44:26;;;;;;;3.47;3.03;;;;;;;16.83;75.33;102046.09;10421391;28;20037;-75
2022/05/21 17:49:26;;;;;;;5.05;1.90;;;;;;;16.75;76.50;102046.28;10420149;28;20120;-74
2022/05/21 17:54:27;;;;;;;2.88;1.95;;;;;;;16.68;76.30;102046.25;10420468;28;20045;-74
2022/05/21 17:59:27;;;;;;;6.65;2.20;;;;;;;16.63;76.72;102048.78;10421165;28;20041;-75
2022/05/21 18:04:28;;;;;;;4.55;2.35;;;;;;;16.47;75.97;102038.28;10403287;28;20044;-74
2022/05/21 18:09:28;;;;;;;8.13;2.70;;;;;;;16.36;76.78;102061.56;10418333;28;20042;-74
2022/05/21 18:14:28;;;;;;;4.68;2.45;;;;;;;16.26;76.83;102059.25;10402060;28;20053;-74
2022/05/21 18:19:31;;;;;;;2.55;2.35;;;;;;;16.08;77.00;102058.16;10401784;28;20039;-75
2022/05/21 18:24:31;;;;;;;8.60;2.22;;;;;;;15.93;77.66;102047.41;10420636;28;20048;-74
2022/05/21 18:29:32;;;;;;;5.95;2.33;;;;;;;15.80;77.46;102050.94;10418268;28;20080;-75
2022/05/21 18:34:32;;;;;;;9.10;2.22;;;;;;;15.67;77.82;102064.53;10419914;28;20037;-74
2022/05/21 18:39:33;;;;;;;2.38;2.17;;;;;;;15.52;78.01;102065.47;10418590;28;20485;-74
2022/05/21 18:44:33;;;;;;;2.90;2.20;;;;;;;15.40;78.36;102064.34;10418940;28;20036;-74
2022/05/21 18:49:34;;;;;;;6.47;2.58;;;;;;;15.30;78.72;102061.13;10419077;28;20034;-75
2022/05/21 18:54:34;;;;;;;2.83;2.33;;;;;;;15.16;78.54;102056.66;10419133;28;20331;-75
2022/05/21 18:59:35;;;;;;;3.88;2.72;;;;;;;15.01;79.17;102051.28;10401169;28;20033;-74
2022/05/21 19:04:35;;;;;;;8.25;2.42;;;;;;;14.85;79.57;102046.97;10400118;28;20091;-74
2022/05/21 19:09:36;;;;;;;7.55;3.28;;;;;;;14.67;79.55;102044.72;10417956;28;20033;-75
2022/05/21 19:14:36;;;;;;;6.07;2.83;;;;;;;14.48;79.51;102048.06;10400179;28;20034;-74
2022/05/21 19:19:36;;;;;;;2.78;2.42;;;;;;;14.31;80.51;102061.13;10418056;28;20520;-75
2022/05/21 19:24:39;;;;;;;12.27;3.42;;;;;;;14.13;80.61;102051.50;10416381;28;20036;-74
2022/05/21 19:29:40;;;;;;;8.43;2.65;;;;;;;14.00;81.16;102047.78;10417886;28;20068;-74
2022/05/21 19:34:40;;;;;;;6.35;3.78;;;;;;;13.83;80.98;102039.00;10415648;28;20048;-74
2022/05/21 19:45:02;;;;;;;10.85;4.05;;;;;;;13.56;81.98;102060.47;10415357;28;20034;-74
2022/05/21 19:50:02;;;;;;;17.45;7.20;;;;;;;13.44;81.93;102057.38;10420870;28;20033;-74
2022/05/21 19:55:04;;;;;;;10.98;5.53;;;;;;;13.32;82.35;102067.03;10417413;28;20473;-74
2022/05/21 20:00:05;;;;;;;9.18;4.85;;;;;;;13.19;82.17;102058.63;10416907;28;20372;-74
2022/05/21 20:05:06;;;;;;;43.92;17.90;;;;;;;13.02;82.39;102063.41;10415595;28;20431;-74
2022/05/21 20:10:08;;;;;;;32.72;16.00;;;;;;;12.86;82.84;102066.25;10415901;28;20034;-75
2022/05/21 20:15:09;;;;;;;17.27;6.78;;;;;;;12.79;83.39;102066.16;10399242;28;20057;-74
2022/05/21 20:20:12;;;;;;;18.02;7.85;;;;;;;12.73;83.34;102065.03;10415519;28;20041;-74
2022/05/21 20:25:12;;;;;;;13.40;5.00;;;;;;;12.64;83.82;102059.84;10414294;28;20033;-75
2022/05/21 20:30:13;;;;;;;9.07;5.55;;;;;;;12.53;84.38;102051.09;10398182;28;20045;-74
2022/05/21 20:35:14;;;;;;;11.52;5.63;;;;;;;12.45;84.58;102050.31;10397579;28;20108;-74
2022/05/21 20:40:14;;;;;;;8.50;5.43;;;;;;;12.38;84.99;102049.34;10415891;28;20116;-74
2022/05/21 20:45:16;;;;;;;30.50;5.85;;;;;;;12.33;85.78;102044.47;10397535;28;20036;-74
2022/05/21 20:50:16;;;;;;;10.82;3.72;;;;;;;12.27;86.05;102043.31;10415043;28;20042;-74
2022/05/21 20:55:17;;;;;;;10.05;4.85;;;;;;;12.14;88.13;102036.78;10416338;28;20045;-74
2022/05/21 21:00:18;;;;;;;11.05;4.50;;;;;;;12.05;87.52;102049.56;10414511;28;20047;-74
2022/05/21 21:05:18;;;;;;;14.05;5.43;;;;;;;11.94;87.67;102042.69;10397130;28;20527;-74
2022/05/21 21:10:19;;;;;;;14.45;4.18;;;;;;;11.89;87.54;102038.81;10397325;28;20029;-74
2022/05/21 21:15:19;;;;;;;10.70;4.43;;;;;;;11.84;88.00;102033.91;10415069;28;20052;-74
2022/05/21 21:20:20;;;;;;;8.48;5.03;;;;;;;11.78;88.47;102026.47;10405034;28;20033;-74
2022/05/21 21:25:20;;;;;;;17.23;6.43;;;;;;;11.75;88.90;102019.53;10421838;28;20526;-74
2022/05/21 21:30:22;;;;;;;10.27;5.97;;;;;;;11.66;88.56;102012.44;10407836;28;20056;-75
2022/05/21 21:35:22;;;;;;;13.25;5.20;;;;;;;11.54;88.76;102013.84;10405916;28;20033;-75
2022/05/21 21:40:23;;;;;;;24.70;6.93;;;;;;;11.44;89.50;102014.06;10422235;28;20450;-75
2022/05/21 21:45:23;;;;;;;17.85;6.00;;;;;;;11.36;90.14;102008.69;10402683;28;20531;-75
2022/05/21 21:50:24;;;;;;;8.93;4.72;;;;;;;11.31;90.52;102006.50;10403139;28;20037;-75
2022/05/21 21:55:24;;;;;;;20.48;6.53;;;;;;;11.26;91.22;102005.31;10420236;28;20427;-74
2022/05/21 22:06:02;;;;;;;17.67;6.22;;;;;;;11.13;90.69;102014.00;10420385;28;20397;-75
2022/05/21 22:11:03;;;;;;;28.95;7.47;;;;;;;11.13;91.15;102014.00;10402851;28;20366;-75
2022/05/21 22:16:03;;;;;;;15.88;6.43;;;;;;;11.14;91.56;102021.13;10419854;28;20120;-75
2022/05/21 22:21:04;;;;;;;18.30;8.60;;;;;;;11.17;91.76;102024.34;10418547;28;20037;-75
2022/05/21 22:26:04;;;;;;;17.20;7.70;;;;;;;11.16;92.18;102006.34;10419944;28;20025;-75
2022/05/21 22:31:05;;;;;;;21.70;6.63;;;;;;;11.15;92.30;102022.81;10419362;28;20405;-75
2022/05/21 22:36:06;;;;;;;27.55;6.85;;;;;;;11.12;92.26;102025.88;10418714;28;20116;-75
2022/05/21 22:41:06;;;;;;;9.02;7.95;;;;;;;11.11;92.17;102022.31;10403318;28;20033;-75
2022/05/21 22:46:08;;;;;;;16.25;8.05;;;;;;;11.15;92.38;102003.84;10401608;28;20100;-75
2022/05/21 22:51:16;;;;;;;14.43;8.00;;;;;;;11.14;92.73;101984.03;10419532;28;20496;-75
2022/05/21 22:56:16;;;;;;;20.10;9.45;;;;;;;11.13;92.96;101985.03;10403404;28;20037;-75
2022/05/21 23:01:17;;;;;;;18.27;8.35;;;;;;;11.11;92.55;101988.94;10400793;28;20037;-74
2022/05/21 23:06:17;;;;;;;23.58;13.20;;;;;;;11.05;92.43;102000.47;10400998;28;20044;-74
2022/05/21 23:11:18;;;;;;;27.15;9.80;;;;;;;10.99;92.89;101998.47;10399933;28;20042;-75
2022/05/21 23:22:23;;;;;;;21.48;7.97;;;;;;;10.79;94.42;101976.34;10417977;28;20389;-75
2022/05/21 23:26:58;;;;;;;15.48;7.47;;;;;;;10.74;94.82;101973.28;10423046;28;20045;-74
2022/05/21 23:31:59;;;;;;;19.08;8.77;;;;;;;10.64;93.86;101989.72;10399991;28;20054;-74
2022/05/21 23:37:06;;;;;;;17.55;8.57;;;;;;;10.50;93.96;101990.41;10416162;28;20029;-74
2022/05/21 23:42:06;;;;;;;21.00;10.55;;;;;;;10.44;94.06;101986.53;10398151;28;20062;-74